createdAt,value
2023-04-17T00:02:19.344Z,32.37
2023-04-17T00:04:47.441Z,28.80
2023-04-17T00:07:16.960Z,32.63
2023-04-17T00:09:44.063Z,31.50
2023-04-17T00:12:16.091Z,33.33
2023-04-17T00:14:43.249Z,32.43
2023-04-17T00:17:15.009Z,33.43
2023-04-17T00:19:44.632Z,34.60
2023-04-17T00:22:16.297Z,30.03
2023-04-17T00:24:48.009Z,33.90
2023-04-17T00:27:17.640Z,32.90
2023-04-17T00:29:46.859Z,33.67
2023-04-17T00:32:16.483Z,32.60
2023-04-17T00:34:43.583Z,37.13
2023-04-17T00:37:13.171Z,29.63
2023-04-17T00:39:42.804Z,31.70
2023-04-17T00:42:09.885Z,33.80
2023-04-17T00:44:39.317Z,33.90
2023-04-17T00:47:08.884Z,33.30
2023-04-17T00:49:36.597Z,32.43
2023-04-17T00:52:08.770Z,33.50
2023-04-17T00:54:36.019Z,37.80
2023-04-17T00:57:03.564Z,29.63
2023-04-17T00:59:36.517Z,31.90
2023-04-17T01:02:06.011Z,32.60
2023-04-17T01:04:35.503Z,33.90
2023-04-17T01:07:05.174Z,31.87
2023-04-17T01:09:35.352Z,33.10
2023-04-17T01:12:25.556Z,33.10
2023-04-17T01:14:53.840Z,33.90
2023-04-17T01:17:26.245Z,36.83
2023-04-17T01:19:53.983Z,33.83
2023-04-17T01:22:21.420Z,34.83
2023-04-17T01:24:53.556Z,34.17
2023-04-17T01:27:22.498Z,36.00
2023-04-17T01:29:49.714Z,33.57
2023-04-17T01:32:19.112Z,35.83
2023-04-17T01:34:46.291Z,34.93
2023-04-17T01:37:15.886Z,35.27
2023-04-17T01:39:45.130Z,34.47
2023-04-17T01:42:14.753Z,34.13
2023-04-17T01:44:44.222Z,36.47
2023-04-17T01:47:14.027Z,38.53
2023-04-17T01:49:43.474Z,33.47
2023-04-17T01:52:10.681Z,35.03
2023-04-17T01:54:39.935Z,33.83
2023-04-17T01:57:11.410Z,34.50
2023-04-17T01:59:40.802Z,38.20
2023-04-17T02:02:10.121Z,36.50
2023-04-17T02:04:39.946Z,36.93
2023-04-17T02:07:09.794Z,40.93
2023-04-17T02:09:39.491Z,42.73
2023-04-17T02:12:06.959Z,42.43
2023-04-17T02:14:36.823Z,35.97
2023-04-17T02:17:03.976Z,33.83
2023-04-17T02:19:33.594Z,37.27
2023-04-17T02:22:05.692Z,37.33
2023-04-17T02:24:32.844Z,36.87
2023-04-17T02:27:00.225Z,36.10
2023-04-17T02:29:27.341Z,40.40
2023-04-17T02:31:54.471Z,36.77
2023-04-17T02:34:23.671Z,36.33
2023-04-17T02:36:51.076Z,40.50
2023-04-17T02:39:18.194Z,40.87
2023-04-17T02:41:49.896Z,38.40
2023-04-17T02:44:16.998Z,48.37
2023-04-17T02:46:46.688Z,47.10
2023-04-17T02:49:18.379Z,41.90
2023-04-17T02:51:52.292Z,50.57
2023-04-17T02:54:24.141Z,40.80
2023-04-17T02:56:53.555Z,44.47
2023-04-17T02:59:26.323Z,44.07
2023-04-17T03:01:53.797Z,43.20
2023-04-17T03:04:23.199Z,44.27
2023-04-17T03:06:53.036Z,44.93
2023-04-17T03:09:22.347Z,43.03
2023-04-17T03:11:52.096Z,42.87
2023-04-17T03:14:21.770Z,45.17
2023-04-17T03:16:56.016Z,47.07
2023-04-17T03:19:23.140Z,48.17
2023-04-17T03:21:52.503Z,47.73
2023-04-17T03:24:22.026Z,45.20
2023-04-17T03:26:51.253Z,44.00
2023-04-17T03:29:18.378Z,49.67
2023-04-17T03:31:45.552Z,50.10
2023-04-17T03:34:18.727Z,47.47
2023-04-17T03:36:52.934Z,46.67
2023-04-17T03:39:20.674Z,47.63
2023-04-17T03:41:52.309Z,46.73
2023-04-17T03:44:21.844Z,51.03
2023-04-17T03:46:48.934Z,49.47
2023-04-17T03:49:23.025Z,48.47
2023-04-17T03:51:52.322Z,43.87
2023-04-17T03:54:20.528Z,46.63
2023-04-17T03:56:48.615Z,46.10
2023-04-17T03:59:16.732Z,46.33
2023-04-17T04:01:46.520Z,45.27
2023-04-17T04:04:14.104Z,42.07
2023-04-17T04:06:42.758Z,42.60
2023-04-17T04:09:12.232Z,43.40
2023-04-17T04:11:39.549Z,39.97
2023-04-17T04:14:09.003Z,41.77
2023-04-17T04:16:36.274Z,43.00
2023-04-17T04:19:06.702Z,38.87
2023-04-17T04:21:38.703Z,42.00
2023-04-17T04:24:08.606Z,44.57
2023-04-17T04:26:41.013Z,41.43
2023-04-17T04:29:09.133Z,44.90
2023-04-17T04:31:39.017Z,41.70
2023-04-17T04:34:06.412Z,46.70
2023-04-17T04:36:42.071Z,44.10
2023-04-17T04:39:10.027Z,43.63
2023-04-17T04:41:38.195Z,42.50
2023-04-17T04:44:07.636Z,50.17
2023-04-17T04:46:37.042Z,44.03
2023-04-17T04:49:06.926Z,40.27
2023-04-17T04:51:35.358Z,39.60
2023-04-17T04:54:05.764Z,41.87
2023-04-17T04:56:33.120Z,35.67
2023-04-17T04:59:02.787Z,42.37
2023-04-17T05:01:32.491Z,36.27
2023-04-17T05:04:02.290Z,34.20
2023-04-17T05:06:29.546Z,38.43
2023-04-17T05:09:01.692Z,31.50
2023-04-17T05:11:29.390Z,33.40
2023-04-17T05:13:56.560Z,36.03
2023-04-17T05:16:31.003Z,30.73
2023-04-17T05:18:58.203Z,33.70
2023-04-17T05:21:30.979Z,29.80
2023-04-17T05:23:59.348Z,31.63
2023-04-17T05:26:28.687Z,32.93
2023-04-17T05:28:57.834Z,35.70
2023-04-17T05:31:27.290Z,33.60
2023-04-17T05:33:54.481Z,35.60
2023-04-17T05:36:24.816Z,32.03
2023-04-17T05:38:52.005Z,33.37
2023-04-17T05:41:19.152Z,33.27
2023-04-17T05:43:47.272Z,36.27
2023-04-17T05:46:15.528Z,35.73
2023-04-17T05:48:43.709Z,35.43
2023-04-17T05:51:13.610Z,38.20
2023-04-17T05:53:40.961Z,35.03
2023-04-17T05:56:10.701Z,37.47
2023-04-17T05:58:40.333Z,35.43
2023-04-17T06:01:18.356Z,36.80
2023-04-17T06:03:48.529Z,37.33
2023-04-17T06:06:15.950Z,34.33
2023-04-17T06:08:47.514Z,38.00
2023-04-17T06:11:17.230Z,39.00
2023-04-17T06:13:44.796Z,37.60
2023-04-17T06:16:14.272Z,34.00
2023-04-17T06:18:41.617Z,35.53
2023-04-17T06:21:11.231Z,35.70
2023-04-17T06:23:43.054Z,32.63
2023-04-17T06:26:15.170Z,34.17
2023-04-17T06:28:44.777Z,37.37
2023-04-17T06:31:14.047Z,32.30
2023-04-17T06:33:41.276Z,35.63
2023-04-17T06:36:12.804Z,33.07
2023-04-17T06:38:44.436Z,35.93
2023-04-17T06:41:14.543Z,33.43
2023-04-17T06:43:41.841Z,34.30
2023-04-17T06:46:09.066Z,32.90
2023-04-17T06:48:38.630Z,31.30
2023-04-17T06:51:08.261Z,33.03
2023-04-17T06:53:35.577Z,29.93
2023-04-17T06:56:05.299Z,29.43
2023-04-17T06:58:43.964Z,29.53
2023-04-17T07:01:14.663Z,31.73
2023-04-17T07:03:43.099Z,32.77
2023-04-17T07:06:10.567Z,34.53
2023-04-17T07:08:37.802Z,35.47
2023-04-17T07:11:08.096Z,37.13
2023-04-17T07:13:37.763Z,32.13
2023-04-17T07:16:06.361Z,29.90
2023-04-17T07:18:35.795Z,32.30
2023-04-17T07:21:05.846Z,29.13
2023-04-17T07:23:33.000Z,29.60
2023-04-17T07:26:02.465Z,29.60
2023-04-17T07:28:31.853Z,26.10
2023-04-17T07:30:58.943Z,26.87
2023-04-17T07:33:28.248Z,29.97
2023-04-17T07:35:57.985Z,30.63
2023-04-17T07:38:27.465Z,32.47
2023-04-17T07:40:54.564Z,30.73
2023-04-17T07:43:23.925Z,32.37
2023-04-17T07:45:51.104Z,30.10
2023-04-17T07:48:24.407Z,32.60
2023-04-17T07:50:54.007Z,34.23
2023-04-17T07:53:25.681Z,35.17
2023-04-17T07:55:58.426Z,35.17
2023-04-17T07:58:27.092Z,29.70
2023-04-17T08:00:57.402Z,33.50
2023-04-17T08:03:29.919Z,36.87
2023-04-17T08:06:02.195Z,35.00
2023-04-17T08:08:29.382Z,31.87
2023-04-17T08:10:58.706Z,34.13
2023-04-17T08:13:26.753Z,34.57
2023-04-17T08:16:01.598Z,34.10
2023-04-17T08:18:32.330Z,35.90
2023-04-17T08:21:04.339Z,35.33
2023-04-17T08:23:36.030Z,32.83
2023-04-17T08:26:05.482Z,37.40
2023-04-17T08:28:36.898Z,32.87
2023-04-17T08:31:08.742Z,33.43
2023-04-17T08:33:35.986Z,34.93
2023-04-17T08:36:07.248Z,43.20
2023-04-17T08:38:38.717Z,33.23
2023-04-17T08:41:10.181Z,36.50
2023-04-17T08:43:37.508Z,37.13
2023-04-17T08:46:05.145Z,32.20
2023-04-17T08:48:34.841Z,34.90
2023-04-17T08:51:04.343Z,32.83
2023-04-17T08:53:34.676Z,35.67
2023-04-17T08:56:08.292Z,37.87
2023-04-17T08:58:37.115Z,38.43
2023-04-17T09:01:11.291Z,35.77
2023-04-17T09:03:45.847Z,36.43
2023-04-17T09:06:16.440Z,35.23
2023-04-17T09:08:59.622Z,38.90
2023-04-17T09:11:33.543Z,33.43
2023-04-17T09:14:01.347Z,32.87
2023-04-17T09:16:29.197Z,35.67
2023-04-17T09:19:08.794Z,36.40
2023-04-17T09:21:41.145Z,34.37
2023-04-17T09:24:10.128Z,33.47
2023-04-17T09:26:39.573Z,32.67
2023-04-17T09:29:12.277Z,36.20
2023-04-17T09:31:42.380Z,35.33
2023-04-17T09:34:12.232Z,32.47
2023-04-17T09:36:43.774Z,35.80
2023-04-17T09:39:21.109Z,32.03
2023-04-17T09:41:48.398Z,31.77
2023-04-17T09:44:30.973Z,33.87
2023-04-17T09:47:01.396Z,32.17
2023-04-17T09:49:42.536Z,32.63
2023-04-17T09:52:15.624Z,37.47
2023-04-17T09:54:46.457Z,32.60
2023-04-17T09:57:13.752Z,34.17
2023-04-17T09:59:43.153Z,36.27
2023-04-17T10:02:14.440Z,33.23
2023-04-17T10:04:42.908Z,35.03
2023-04-17T10:07:13.248Z,33.43
2023-04-17T10:09:42.185Z,33.13
2023-04-17T10:12:17.584Z,30.67
2023-04-17T10:14:52.421Z,35.73
2023-04-17T10:17:34.382Z,36.97
2023-04-17T10:20:20.102Z,34.53
2023-04-17T10:22:54.774Z,37.30
2023-04-17T10:25:31.987Z,36.13
2023-04-17T10:28:03.072Z,37.93
2023-04-17T10:31:08.024Z,33.50
2023-04-17T10:33:54.146Z,33.10
2023-04-17T10:36:40.381Z,35.83
2023-04-17T10:39:18.333Z,36.23
2023-04-17T10:42:05.780Z,37.97
2023-04-17T10:44:41.286Z,31.33
2023-04-17T10:47:18.328Z,34.53
2023-04-17T10:49:48.439Z,34.20
2023-04-17T10:52:45.550Z,35.37
2023-04-17T10:55:20.891Z,32.87
2023-04-17T10:58:05.014Z,31.50
2023-04-17T11:00:49.535Z,32.00
2023-04-17T11:03:23.152Z,32.03
2023-04-17T11:05:51.933Z,34.47
2023-04-17T11:08:22.458Z,33.77
2023-04-17T11:11:00.466Z,34.83
2023-04-17T11:13:32.627Z,35.07
2023-04-17T11:15:59.887Z,35.47
2023-04-17T11:18:27.054Z,34.20
2023-04-17T11:20:57.250Z,33.43
2023-04-17T11:23:34.014Z,33.63
2023-04-17T11:26:01.453Z,36.80
2023-04-17T11:28:31.593Z,33.50
2023-04-17T11:31:00.905Z,36.30
2023-04-17T11:33:37.714Z,34.10
2023-04-17T11:36:06.478Z,30.97
2023-04-17T11:38:34.250Z,37.30
2023-04-17T11:41:05.986Z,30.30
2023-04-17T11:43:37.863Z,33.73
2023-04-17T11:46:05.372Z,27.90
2023-04-17T11:48:34.912Z,32.00
2023-04-17T11:51:05.286Z,33.37
2023-04-17T11:53:46.210Z,32.20
2023-04-17T11:56:19.738Z,32.07
2023-04-17T11:58:53.908Z,33.13
2023-04-17T12:01:27.836Z,32.20
2023-04-17T12:03:56.998Z,31.57
2023-04-17T12:06:24.906Z,31.10
2023-04-17T12:08:53.893Z,28.83
2023-04-17T12:11:31.251Z,31.63
2023-04-17T12:14:01.827Z,29.53
2023-04-17T12:16:29.784Z,28.17
2023-04-17T12:19:01.402Z,28.60
2023-04-17T12:21:32.981Z,33.37
2023-04-17T12:24:00.373Z,31.90
2023-04-17T12:26:30.140Z,29.87
2023-04-17T12:28:57.696Z,30.63
2023-04-17T12:31:29.369Z,31.83
2023-04-17T12:33:58.951Z,38.13
2023-04-17T12:36:28.494Z,30.70
2023-04-17T12:38:58.058Z,29.87
2023-04-17T12:41:26.760Z,31.00
2023-04-17T12:44:00.232Z,30.97
2023-04-17T12:46:30.594Z,32.13
2023-04-17T12:49:00.441Z,29.70
2023-04-17T12:51:38.071Z,30.10
2023-04-17T12:54:08.375Z,31.33
2023-04-17T12:56:35.894Z,28.40
2023-04-17T12:59:07.441Z,30.37
2023-04-17T13:01:37.081Z,30.97
2023-04-17T13:04:04.624Z,28.53
2023-04-17T13:06:32.506Z,31.80
2023-04-17T13:09:02.231Z,30.57
2023-04-17T13:11:32.414Z,28.83
2023-04-17T13:13:59.658Z,33.60
2023-04-17T13:16:27.034Z,28.43
2023-04-17T13:18:56.848Z,28.60
2023-04-17T13:21:23.944Z,26.87
2023-04-17T13:23:51.083Z,31.00
2023-04-17T13:26:20.878Z,28.85
2023-04-17T13:28:48.015Z,28.50
2023-04-17T13:31:17.530Z,30.17
2023-04-17T13:33:46.932Z,26.43
2023-04-17T13:36:14.101Z,27.33
2023-04-17T13:38:41.823Z,26.57
2023-04-17T13:41:14.029Z,29.70
2023-04-17T13:43:45.979Z,31.20
2023-04-17T13:46:16.184Z,27.80
2023-04-17T13:48:43.741Z,28.27
2023-04-17T13:51:13.829Z,30.37
2023-04-17T13:53:43.192Z,30.60
2023-04-17T13:56:12.851Z,28.17
2023-04-17T13:58:45.532Z,30.37
2023-04-17T14:01:15.389Z,31.20
2023-04-17T14:03:47.762Z,32.97
2023-04-17T14:06:20.354Z,32.57
2023-04-17T14:08:47.772Z,28.47
2023-04-17T14:11:15.468Z,31.02
2023-04-17T14:13:45.188Z,27.80
2023-04-17T14:16:15.176Z,30.03
2023-04-17T14:18:46.009Z,27.80
2023-04-17T14:21:13.199Z,28.73
2023-04-17T14:23:42.627Z,27.70
2023-04-17T14:26:12.884Z,25.37
2023-04-17T14:28:42.732Z,26.90
2023-04-17T14:31:09.944Z,30.97
2023-04-17T14:33:37.167Z,30.03
2023-04-17T14:36:05.942Z,26.90
2023-04-17T14:38:34.122Z,23.13
2023-04-17T14:41:03.896Z,24.10
2023-04-17T14:43:35.761Z,26.50
2023-04-17T14:46:05.075Z,24.42
2023-04-17T14:48:44.288Z,21.53
2023-04-17T14:53:49.212Z,23.75
2023-04-17T14:56:16.812Z,27.17
2023-04-17T14:58:43.891Z,26.02
2023-04-17T15:01:13.566Z,25.87
2023-04-17T15:03:46.848Z,28.53
2023-04-17T15:06:16.170Z,22.70
2023-04-17T15:08:48.458Z,23.00
2023-04-17T15:11:16.155Z,26.05
2023-04-17T15:13:43.307Z,23.37
2023-04-17T15:16:11.014Z,22.60
2023-04-17T15:18:44.883Z,19.63
2023-04-17T15:21:16.431Z,18.15
2023-04-17T15:23:45.609Z,18.95
2023-04-17T15:26:13.513Z,19.73
2023-04-17T15:28:45.670Z,19.85
2023-04-17T15:31:15.738Z,20.40
2023-04-17T15:33:42.873Z,24.00
2023-04-17T15:36:10.016Z,27.42
2023-04-17T15:38:41.851Z,23.65
2023-04-17T15:41:10.607Z,23.02
2023-04-17T15:43:38.531Z,24.60
2023-04-17T15:46:08.342Z,26.58
2023-04-17T15:48:37.819Z,26.38
2023-04-17T15:51:05.211Z,23.98
2023-04-17T15:53:37.141Z,23.50
2023-04-17T15:56:06.332Z,23.10
2023-04-17T15:58:35.915Z,23.95
2023-04-17T16:01:07.841Z,23.35
2023-04-17T16:03:40.956Z,25.13
2023-04-17T16:06:11.226Z,23.20
2023-04-17T16:08:41.026Z,20.83
2023-04-17T16:11:12.648Z,20.63
2023-04-17T16:13:42.235Z,21.70
2023-04-17T16:16:10.723Z,17.07
2023-04-17T16:18:37.916Z,21.03
2023-04-17T16:21:14.665Z,24.33
2023-04-17T16:23:41.938Z,17.63
2023-04-17T16:26:09.002Z,18.07
2023-04-17T16:28:36.142Z,20.73
2023-04-17T16:31:03.288Z,17.42
2023-04-17T16:33:30.423Z,18.45
2023-04-17T16:36:02.010Z,16.25
2023-04-17T16:38:31.722Z,15.65
2023-04-17T16:41:02.023Z,14.73
2023-04-17T16:43:33.810Z,14.75
2023-04-17T16:46:05.453Z,14.90
2023-04-17T16:48:35.590Z,15.48
2023-04-17T16:51:07.705Z,14.75
2023-04-17T16:53:37.161Z,13.55
2023-04-17T16:56:09.188Z,16.55
2023-04-17T16:58:39.670Z,13.98
2023-04-17T17:01:09.676Z,16.55
2023-04-17T17:03:43.488Z,15.52
2023-04-17T17:06:12.927Z,15.85
2023-04-17T17:08:46.843Z,14.18
2023-04-17T17:11:18.400Z,13.07
2023-04-17T17:13:51.724Z,15.73
2023-04-17T17:16:23.726Z,12.70
2023-04-17T17:18:53.462Z,13.35
2023-04-17T17:21:20.823Z,14.50
2023-04-17T17:23:50.422Z,12.65
2023-04-17T17:26:20.013Z,13.70
2023-04-17T17:28:51.246Z,11.57
2023-04-17T17:31:21.138Z,12.20
2023-04-17T17:33:54.990Z,11.00
2023-04-17T17:36:22.144Z,12.77
2023-04-17T17:38:55.568Z,13.18
2023-04-17T17:41:25.790Z,11.15
2023-04-17T17:43:55.980Z,11.80
2023-04-17T17:46:27.726Z,13.50
2023-04-17T17:48:59.182Z,11.73
2023-04-17T17:51:28.551Z,12.27
2023-04-17T17:53:55.771Z,15.20
2023-04-17T17:56:28.526Z,14.90
2023-04-17T17:58:58.136Z,11.55
2023-04-17T18:01:25.409Z,14.60
2023-04-17T18:03:53.341Z,16.55
2023-04-17T18:06:21.321Z,12.43
2023-04-17T18:08:48.759Z,14.35
2023-04-17T18:11:23.203Z,12.65
2023-04-17T18:13:50.797Z,12.65
2023-04-17T18:16:20.290Z,12.90
2023-04-17T18:18:47.433Z,12.60
2023-04-17T18:21:14.521Z,13.95
2023-04-17T18:23:41.668Z,12.77
2023-04-17T18:26:08.820Z,14.82
2023-04-17T18:28:38.689Z,14.40
2023-04-17T18:31:05.902Z,13.52
2023-04-17T18:33:33.076Z,14.63
2023-04-17T18:36:02.498Z,14.60
2023-04-17T18:38:29.544Z,16.27
2023-04-17T18:41:01.810Z,13.73
2023-04-17T18:43:29.034Z,17.92
2023-04-17T18:46:02.260Z,16.15
2023-04-17T18:48:32.121Z,12.75
2023-04-17T18:51:09.463Z,15.23
2023-04-17T18:53:39.186Z,14.13
2023-04-17T18:56:10.734Z,11.63
2023-04-17T18:58:40.618Z,14.43
2023-04-17T19:01:10.817Z,13.05
2023-04-17T19:03:42.641Z,14.60
2023-04-17T19:06:12.019Z,15.07
2023-04-17T19:08:45.560Z,12.10
2023-04-17T19:11:12.921Z,12.43
2023-04-17T19:13:42.316Z,12.50
2023-04-17T19:16:09.461Z,14.68
2023-04-17T19:18:36.638Z,17.15
2023-04-17T19:21:06.229Z,13.65
2023-04-17T19:23:37.050Z,14.65
2023-04-17T19:26:04.224Z,13.38
2023-04-17T19:28:31.371Z,13.63
2023-04-17T19:30:59.235Z,13.90
2023-04-17T19:33:28.551Z,13.02
2023-04-17T19:35:58.367Z,14.85
2023-04-17T19:38:28.498Z,16.05
2023-04-17T19:41:20.017Z,15.55
2023-04-17T19:43:54.213Z,13.90
2023-04-17T19:46:22.986Z,16.15
2023-04-17T19:48:55.296Z,13.83
2023-04-17T19:51:24.904Z,15.32
2023-04-17T19:53:54.539Z,16.10
2023-04-17T19:56:21.682Z,16.40
2023-04-17T19:58:48.777Z,14.55
2023-04-17T20:01:16.162Z,16.77
2023-04-17T20:03:45.864Z,16.05
2023-04-17T20:06:15.233Z,16.33
2023-04-17T20:08:45.152Z,18.93
2023-04-17T20:11:16.369Z,15.63
2023-04-17T20:13:43.474Z,16.30
2023-04-17T20:16:12.992Z,13.73
2023-04-17T20:18:41.606Z,14.98
2023-04-17T20:21:12.492Z,18.08
2023-04-17T20:23:39.608Z,15.20
2023-04-17T20:26:06.768Z,17.93
2023-04-17T20:28:36.115Z,16.93
2023-04-17T20:31:10.480Z,17.33
2023-04-17T20:33:37.726Z,16.27
2023-04-17T20:36:07.822Z,18.00
2023-04-17T20:38:37.154Z,14.38
2023-04-17T20:41:06.583Z,16.33
2023-04-17T20:43:35.975Z,14.48
2023-04-17T20:46:06.131Z,16.20
2023-04-17T20:48:35.522Z,19.20
2023-04-17T20:51:05.552Z,18.10
2023-04-17T20:53:37.417Z,18.97
2023-04-17T20:56:04.751Z,16.87
2023-04-17T20:58:34.156Z,18.83
2023-04-17T21:01:03.745Z,19.48
2023-04-17T21:03:31.398Z,19.20
2023-04-17T21:05:59.199Z,18.93
2023-04-17T21:08:28.840Z,17.87
2023-04-17T21:10:59.135Z,16.57
2023-04-17T21:13:31.346Z,19.03
2023-04-17T21:16:01.085Z,17.83
2023-04-17T21:18:30.705Z,18.83
2023-04-17T21:21:02.699Z,18.47
2023-04-17T21:23:34.467Z,18.30
2023-04-17T21:26:04.943Z,19.57
2023-04-17T21:28:36.835Z,20.57
2023-04-17T21:31:10.341Z,19.53
2023-04-17T21:33:40.147Z,19.30
2023-04-17T21:36:07.359Z,19.73
2023-04-17T21:38:34.487Z,18.40
2023-04-17T21:41:01.624Z,23.77
2023-04-17T21:43:31.679Z,21.13
2023-04-17T21:46:03.660Z,19.30
2023-04-17T21:48:30.842Z,18.47
2023-04-17T21:51:04.866Z,20.30
2023-04-17T21:53:37.359Z,20.50
2023-04-17T21:56:06.863Z,20.40
2023-04-17T21:58:34.280Z,19.80
2023-04-17T22:01:03.680Z,18.93
2023-04-17T22:03:30.858Z,21.73
2023-04-17T22:05:58.321Z,22.87
2023-04-17T22:08:25.495Z,20.57
2023-04-17T22:10:55.199Z,20.10
2023-04-17T22:13:24.311Z,20.30
2023-04-17T22:15:51.587Z,21.30
2023-04-17T22:18:23.508Z,20.07
2023-04-17T22:20:50.599Z,23.60
2023-04-17T22:23:20.047Z,23.57
2023-04-17T22:25:47.288Z,22.53
2023-04-17T22:28:14.388Z,22.90
2023-04-17T22:30:43.623Z,24.67
2023-04-17T22:33:10.771Z,22.53
2023-04-17T22:35:40.441Z,20.27
2023-04-17T22:38:09.694Z,20.53
2023-04-17T22:40:40.240Z,21.77
2023-04-17T22:43:07.394Z,25.03
2023-04-17T22:45:36.997Z,22.10
2023-04-17T22:48:06.758Z,21.30
2023-04-17T22:50:34.224Z,20.10
2023-04-17T22:53:01.342Z,23.77
2023-04-17T22:55:30.781Z,22.57
2023-04-17T22:58:01.937Z,22.43
2023-04-17T23:00:30.512Z,22.33
2023-04-17T23:02:58.171Z,21.50
2023-04-17T23:05:27.885Z,20.90
2023-04-17T23:07:54.980Z,21.30
2023-04-17T23:10:26.741Z,23.57
2023-04-17T23:12:56.402Z,20.90
2023-04-17T23:15:23.735Z,23.30
2023-04-17T23:17:53.317Z,21.67
2023-04-17T23:20:20.563Z,22.73
2023-04-17T23:22:47.681Z,23.90
2023-04-17T23:25:22.479Z,22.40
2023-04-17T23:27:49.606Z,21.93
2023-04-17T23:30:18.990Z,20.17
2023-04-17T23:32:51.035Z,20.13
2023-04-17T23:35:18.354Z,22.40
2023-04-17T23:37:51.659Z,20.37
2023-04-17T23:40:18.789Z,19.77
2023-04-17T23:42:45.922Z,19.93
2023-04-17T23:45:15.594Z,19.60
2023-04-17T23:47:42.701Z,21.47
2023-04-17T23:50:12.615Z,21.83
2023-04-17T23:52:39.711Z,20.27
2023-04-17T23:55:14.026Z,22.97
2023-04-17T23:57:45.898Z,21.53
